sensor_id;sensor_type;location;lat;lon;timestamp;P1;durP1;ratioP1;P2;durP2;ratioP2
38117;SDS011;23928;47.562;7.508;2022-12-10T00:01:13;47.00;;;23.23;;
38117;SDS011;23928;47.562;7.508;2022-12-10T00:03:40;44.10;;;21.17;;
38117;SDS011;23928;47.562;7.508;2022-12-10T00:06:09;46.63;;;23.93;;
38117;SDS011;23928;47.562;7.508;2022-12-10T00:08:40;43.57;;;21.87;;
38117;SDS011;23928;47.562;7.508;2022-12-10T00:11:07;40.43;;;21.57;;
38117;SDS011;23928;47.562;7.508;2022-12-10T00:13:34;47.43;;;22.70;;
38117;SDS011;23928;47.562;7.508;2022-12-10T00:16:01;41.10;;;20.43;;
38117;SDS011;23928;47.562;7.508;2022-12-10T00:18:28;40.53;;;21.03;;
38117;SDS011;23928;47.562;7.508;2022-12-10T00:20:53;40.27;;;21.07;;
38117;SDS011;23928;47.562;7.508;2022-12-10T00:23:19;44.70;;;23.03;;
38117;SDS011;23928;47.562;7.508;2022-12-10T00:25:44;44.43;;;23.17;;
38117;SDS011;23928;47.562;7.508;2022-12-10T00:28:10;42.20;;;21.83;;
38117;SDS011;23928;47.562;7.508;2022-12-10T00:30:36;43.63;;;22.07;;
38117;SDS011;23928;47.562;7.508;2022-12-10T00:33:01;42.57;;;21.23;;
38117;SDS011;23928;47.562;7.508;2022-12-10T00:35:27;46.67;;;21.40;;
38117;SDS011;23928;47.562;7.508;2022-12-10T00:37:53;39.47;;;21.33;;
38117;SDS011;23928;47.562;7.508;2022-12-10T00:40:18;50.23;;;22.37;;
38117;SDS011;23928;47.562;7.508;2022-12-10T00:42:44;41.47;;;22.03;;
38117;SDS011;23928;47.562;7.508;2022-12-10T00:45:10;41.50;;;21.97;;
38117;SDS011;23928;47.562;7.508;2022-12-10T00:47:35;42.30;;;22.63;;
38117;SDS011;23928;47.562;7.508;2022-12-10T00:50:01;43.27;;;22.30;;
38117;SDS011;23928;47.562;7.508;2022-12-10T00:52:26;40.00;;;21.20;;
38117;SDS011;23928;47.562;7.508;2022-12-10T00:54:52;42.77;;;21.23;;
38117;SDS011;23928;47.562;7.508;2022-12-10T00:57:17;41.53;;;20.10;;
38117;SDS011;23928;47.562;7.508;2022-12-10T00:59:43;41.07;;;21.50;;
38117;SDS011;23928;47.562;7.508;2022-12-10T01:02:09;41.17;;;21.17;;
38117;SDS011;23928;47.562;7.508;2022-12-10T01:04:34;37.03;;;20.57;;
38117;SDS011;23928;47.562;7.508;2022-12-10T01:07:00;38.43;;;20.53;;
38117;SDS011;23928;47.562;7.508;2022-12-10T01:09:26;37.03;;;20.37;;
38117;SDS011;23928;47.562;7.508;2022-12-10T01:11:54;38.07;;;20.00;;
38117;SDS011;23928;47.562;7.508;2022-12-10T01:14:22;37.67;;;20.37;;
38117;SDS011;23928;47.562;7.508;2022-12-10T01:16:53;38.07;;;19.33;;
38117;SDS011;23928;47.562;7.508;2022-12-10T01:19:20;39.03;;;20.03;;
38117;SDS011;23928;47.562;7.508;2022-12-10T01:21:49;38.27;;;20.53;;
38117;SDS011;23928;47.562;7.508;2022-12-10T01:24:18;40.47;;;20.77;;
38117;SDS011;23928;47.562;7.508;2022-12-10T01:26:45;34.27;;;19.40;;
38117;SDS011;23928;47.562;7.508;2022-12-10T01:29:11;39.17;;;19.60;;
38117;SDS011;23928;47.562;7.508;2022-12-10T01:31:37;38.20;;;21.07;;
38117;SDS011;23928;47.562;7.508;2022-12-10T01:34:04;35.07;;;19.50;;
38117;SDS011;23928;47.562;7.508;2022-12-10T01:36:35;34.20;;;18.53;;
38117;SDS011;23928;47.562;7.508;2022-12-10T01:39:03;40.07;;;21.20;;
38117;SDS011;23928;47.562;7.508;2022-12-10T01:41:33;40.33;;;20.20;;
38117;SDS011;23928;47.562;7.508;2022-12-10T01:46:40;37.13;;;18.57;;
38117;SDS011;23928;47.562;7.508;2022-12-10T01:49:09;37.17;;;20.10;;
38117;SDS011;23928;47.562;7.508;2022-12-10T01:51:38;33.87;;;19.20;;
38117;SDS011;23928;47.562;7.508;2022-12-10T01:54:06;39.33;;;21.23;;
38117;SDS011;23928;47.562;7.508;2022-12-10T01:56:36;36.07;;;19.53;;
38117;SDS011;23928;47.562;7.508;2022-12-10T01:59:06;33.13;;;18.37;;
38117;SDS011;23928;47.562;7.508;2022-12-10T02:07:02;35.40;;;19.47;;
38117;SDS011;23928;47.562;7.508;2022-12-10T02:09:42;36.63;;;18.73;;
38117;SDS011;23928;47.562;7.508;2022-12-10T02:14:43;38.37;;;20.00;;
38117;SDS011;23928;47.562;7.508;2022-12-10T02:17:27;35.07;;;18.83;;
38117;SDS011;23928;47.562;7.508;2022-12-10T02:22:33;38.67;;;20.13;;
38117;SDS011;23928;47.562;7.508;2022-12-10T02:25:03;37.23;;;20.00;;
38117;SDS011;23928;47.562;7.508;2022-12-10T02:27:33;38.17;;;21.33;;
38117;SDS011;23928;47.562;7.508;2022-12-10T02:30:24;36.93;;;19.70;;
38117;SDS011;23928;47.562;7.508;2022-12-10T02:32:51;37.50;;;21.47;;
38117;SDS011;23928;47.562;7.508;2022-12-10T02:35:22;37.93;;;19.43;;
38117;SDS011;23928;47.562;7.508;2022-12-10T02:37:55;38.43;;;21.27;;
38117;SDS011;23928;47.562;7.508;2022-12-10T02:40:26;33.77;;;19.57;;
38117;SDS011;23928;47.562;7.508;2022-12-10T02:42:55;41.37;;;21.70;;
38117;SDS011;23928;47.562;7.508;2022-12-10T02:45:22;39.70;;;19.87;;
38117;SDS011;23928;47.562;7.508;2022-12-10T02:47:51;41.30;;;20.77;;
38117;SDS011;23928;47.562;7.508;2022-12-10T02:50:20;40.90;;;20.53;;
38117;SDS011;23928;47.562;7.508;2022-12-10T02:52:47;40.03;;;21.50;;
38117;SDS011;23928;47.562;7.508;2022-12-10T02:55:13;38.23;;;21.27;;
38117;SDS011;23928;47.562;7.508;2022-12-10T03:02:56;39.70;;;21.10;;
38117;SDS011;23928;47.562;7.508;2022-12-10T03:05:33;37.47;;;19.93;;
38117;SDS011;23928;47.562;7.508;2022-12-10T03:08:03;40.40;;;21.57;;
38117;SDS011;23928;47.562;7.508;2022-12-10T03:10:41;40.43;;;21.70;;
38117;SDS011;23928;47.562;7.508;2022-12-10T03:13:14;43.03;;;21.40;;
38117;SDS011;23928;47.562;7.508;2022-12-10T03:15:41;38.50;;;21.53;;
38117;SDS011;23928;47.562;7.508;2022-12-10T03:18:09;41.30;;;22.20;;
38117;SDS011;23928;47.562;7.508;2022-12-10T03:20:38;41.00;;;20.80;;
38117;SDS011;23928;47.562;7.508;2022-12-10T03:23:07;37.30;;;20.33;;
38117;SDS011;23928;47.562;7.508;2022-12-10T03:25:36;37.77;;;20.73;;
38117;SDS011;23928;47.562;7.508;2022-12-10T03:28:03;38.43;;;20.97;;
38117;SDS011;23928;47.562;7.508;2022-12-10T03:30:33;38.47;;;21.10;;
38117;SDS011;23928;47.562;7.508;2022-12-10T03:33:01;38.87;;;20.83;;
38117;SDS011;23928;47.562;7.508;2022-12-10T03:35:27;39.83;;;21.10;;
38117;SDS011;23928;47.562;7.508;2022-12-10T03:37:53;39.93;;;20.30;;
38117;SDS011;23928;47.562;7.508;2022-12-10T03:40:20;40.63;;;20.67;;
38117;SDS011;23928;47.562;7.508;2022-12-10T03:42:48;37.53;;;21.57;;
38117;SDS011;23928;47.562;7.508;2022-12-10T03:45:13;37.50;;;21.83;;
38117;SDS011;23928;47.562;7.508;2022-12-10T03:47:40;40.80;;;21.27;;
38117;SDS011;23928;47.562;7.508;2022-12-10T03:50:06;37.10;;;20.17;;
38117;SDS011;23928;47.562;7.508;2022-12-10T03:52:32;38.20;;;19.87;;
38117;SDS011;23928;47.562;7.508;2022-12-10T03:54:58;36.93;;;19.77;;
38117;SDS011;23928;47.562;7.508;2022-12-10T03:57:23;39.03;;;21.10;;
38117;SDS011;23928;47.562;7.508;2022-12-10T03:59:49;35.93;;;20.33;;
38117;SDS011;23928;47.562;7.508;2022-12-10T04:02:15;39.33;;;21.63;;
38117;SDS011;23928;47.562;7.508;2022-12-10T04:04:40;39.67;;;21.90;;
38117;SDS011;23928;47.562;7.508;2022-12-10T04:07:06;36.97;;;19.87;;
38117;SDS011;23928;47.562;7.508;2022-12-10T04:09:32;34.30;;;19.17;;
38117;SDS011;23928;47.562;7.508;2022-12-10T04:11:57;37.37;;;19.93;;
38117;SDS011;23928;47.562;7.508;2022-12-10T04:14:23;35.57;;;20.93;;
38117;SDS011;23928;47.562;7.508;2022-12-10T04:17:08;35.80;;;19.93;;
38117;SDS011;23928;47.562;7.508;2022-12-10T04:19:34;34.43;;;19.77;;
38117;SDS011;23928;47.562;7.508;2022-12-10T04:21:59;35.70;;;20.20;;
38117;SDS011;23928;47.562;7.508;2022-12-10T04:24:43;39.93;;;20.93;;
38117;SDS011;23928;47.562;7.508;2022-12-10T04:27:29;39.87;;;21.37;;
38117;SDS011;23928;47.562;7.508;2022-12-10T04:29:56;37.07;;;21.10;;
38117;SDS011;23928;47.562;7.508;2022-12-10T04:32:23;37.50;;;20.27;;
38117;SDS011;23928;47.562;7.508;2022-12-10T04:34:50;36.17;;;19.60;;
38117;SDS011;23928;47.562;7.508;2022-12-10T04:37:16;38.43;;;20.03;;
38117;SDS011;23928;47.562;7.508;2022-12-10T04:39:43;34.67;;;19.20;;
38117;SDS011;23928;47.562;7.508;2022-12-10T04:42:09;36.33;;;19.67;;
38117;SDS011;23928;47.562;7.508;2022-12-10T04:44:35;36.60;;;19.03;;
38117;SDS011;23928;47.562;7.508;2022-12-10T04:47:01;33.90;;;19.53;;
38117;SDS011;23928;47.562;7.508;2022-12-10T04:49:28;31.57;;;19.00;;
38117;SDS011;23928;47.562;7.508;2022-12-10T04:51:54;30.87;;;17.13;;
38117;SDS011;23928;47.562;7.508;2022-12-10T04:54:20;30.97;;;18.17;;
38117;SDS011;23928;47.562;7.508;2022-12-10T04:56:46;32.20;;;18.20;;
38117;SDS011;23928;47.562;7.508;2022-12-10T04:59:12;35.33;;;18.43;;
38117;SDS011;23928;47.562;7.508;2022-12-10T05:01:38;32.23;;;18.37;;
38117;SDS011;23928;47.562;7.508;2022-12-10T05:04:06;33.87;;;18.80;;
38117;SDS011;23928;47.562;7.508;2022-12-10T05:06:33;34.57;;;18.97;;
38117;SDS011;23928;47.562;7.508;2022-12-10T05:08:59;30.90;;;18.07;;
38117;SDS011;23928;47.562;7.508;2022-12-10T05:11:27;32.63;;;18.13;;
38117;SDS011;23928;47.562;7.508;2022-12-10T05:13:54;32.63;;;17.70;;
38117;SDS011;23928;47.562;7.508;2022-12-10T05:16:21;33.70;;;19.40;;
38117;SDS011;23928;47.562;7.508;2022-12-10T05:18:48;32.37;;;17.80;;
38117;SDS011;23928;47.562;7.508;2022-12-10T05:21:15;28.70;;;16.97;;
38117;SDS011;23928;47.562;7.508;2022-12-10T05:23:43;32.63;;;18.23;;
38117;SDS011;23928;47.562;7.508;2022-12-10T05:26:12;35.60;;;19.30;;
38117;SDS011;23928;47.562;7.508;2022-12-10T05:28:41;34.67;;;18.53;;
38117;SDS011;23928;47.562;7.508;2022-12-10T05:31:14;33.33;;;19.23;;
38117;SDS011;23928;47.562;7.508;2022-12-10T05:33:45;35.27;;;18.10;;
38117;SDS011;23928;47.562;7.508;2022-12-10T05:36:12;30.93;;;17.73;;
38117;SDS011;23928;47.562;7.508;2022-12-10T05:38:40;29.50;;;16.97;;
38117;SDS011;23928;47.562;7.508;2022-12-10T05:41:06;32.13;;;18.07;;
38117;SDS011;23928;47.562;7.508;2022-12-10T05:43:43;26.23;;;16.53;;
38117;SDS011;23928;47.562;7.508;2022-12-10T05:46:13;30.47;;;17.03;;
38117;SDS011;23928;47.562;7.508;2022-12-10T05:48:41;31.53;;;19.20;;
38117;SDS011;23928;47.562;7.508;2022-12-10T05:51:07;29.93;;;17.70;;
38117;SDS011;23928;47.562;7.508;2022-12-10T05:53:38;35.07;;;19.27;;
38117;SDS011;23928;47.562;7.508;2022-12-10T05:56:06;37.17;;;19.40;;
38117;SDS011;23928;47.562;7.508;2022-12-10T05:58:43;32.40;;;18.07;;
38117;SDS011;23928;47.562;7.508;2022-12-10T06:01:12;34.83;;;19.57;;
38117;SDS011;23928;47.562;7.508;2022-12-10T06:03:39;37.17;;;19.17;;
38117;SDS011;23928;47.562;7.508;2022-12-10T06:06:05;35.77;;;19.60;;
38117;SDS011;23928;47.562;7.508;2022-12-10T06:08:31;37.87;;;19.03;;
38117;SDS011;23928;47.562;7.508;2022-12-10T06:11:00;37.30;;;20.43;;
38117;SDS011;23928;47.562;7.508;2022-12-10T06:13:30;36.47;;;19.23;;
38117;SDS011;23928;47.562;7.508;2022-12-10T06:15:56;40.93;;;19.23;;
38117;SDS011;23928;47.562;7.508;2022-12-10T06:18:21;41.27;;;20.87;;
38117;SDS011;23928;47.562;7.508;2022-12-10T06:20:47;38.47;;;20.20;;
38117;SDS011;23928;47.562;7.508;2022-12-10T06:23:13;40.67;;;20.23;;
38117;SDS011;23928;47.562;7.508;2022-12-10T06:25:39;43.37;;;21.63;;
38117;SDS011;23928;47.562;7.508;2022-12-10T06:28:05;41.27;;;21.40;;
38117;SDS011;23928;47.562;7.508;2022-12-10T06:30:32;40.57;;;21.43;;
38117;SDS011;23928;47.562;7.508;2022-12-10T06:32:58;39.00;;;19.07;;
38117;SDS011;23928;47.562;7.508;2022-12-10T06:35:24;42.07;;;21.00;;
38117;SDS011;23928;47.562;7.508;2022-12-10T06:37:50;42.83;;;21.17;;
38117;SDS011;23928;47.562;7.508;2022-12-10T06:40:16;42.73;;;21.33;;
38117;SDS011;23928;47.562;7.508;2022-12-10T06:42:41;43.57;;;20.60;;
38117;SDS011;23928;47.562;7.508;2022-12-10T06:45:07;42.97;;;20.07;;
38117;SDS011;23928;47.562;7.508;2022-12-10T06:47:33;45.00;;;21.73;;
38117;SDS011;23928;47.562;7.508;2022-12-10T06:49:59;45.40;;;20.17;;
38117;SDS011;23928;47.562;7.508;2022-12-10T06:52:24;39.47;;;20.10;;
38117;SDS011;23928;47.562;7.508;2022-12-10T06:54:50;38.90;;;21.13;;
38117;SDS011;23928;47.562;7.508;2022-12-10T06:57:16;40.57;;;19.67;;
38117;SDS011;23928;47.562;7.508;2022-12-10T06:59:41;40.83;;;19.73;;
38117;SDS011;23928;47.562;7.508;2022-12-10T07:02:07;45.60;;;21.77;;
38117;SDS011;23928;47.562;7.508;2022-12-10T07:04:34;38.37;;;20.33;;
38117;SDS011;23928;47.562;7.508;2022-12-10T07:07:00;36.90;;;20.27;;
38117;SDS011;23928;47.562;7.508;2022-12-10T07:09:25;37.47;;;19.93;;
38117;SDS011;23928;47.562;7.508;2022-12-10T07:11:51;36.93;;;19.03;;
38117;SDS011;23928;47.562;7.508;2022-12-10T07:14:17;39.73;;;19.37;;
38117;SDS011;23928;47.562;7.508;2022-12-10T07:16:42;36.90;;;19.70;;
38117;SDS011;23928;47.562;7.508;2022-12-10T07:19:08;37.57;;;19.40;;
38117;SDS011;23928;47.562;7.508;2022-12-10T07:21:36;34.03;;;17.70;;
38117;SDS011;23928;47.562;7.508;2022-12-10T07:24:05;35.40;;;18.90;;
38117;SDS011;23928;47.562;7.508;2022-12-10T07:26:34;36.07;;;19.17;;
38117;SDS011;23928;47.562;7.508;2022-12-10T07:29:02;33.93;;;18.20;;
38117;SDS011;23928;47.562;7.508;2022-12-10T07:31:29;36.43;;;18.90;;
38117;SDS011;23928;47.562;7.508;2022-12-10T07:33:56;35.50;;;18.97;;
38117;SDS011;23928;47.562;7.508;2022-12-10T07:36:23;36.17;;;17.90;;
38117;SDS011;23928;47.562;7.508;2022-12-10T07:38:50;37.10;;;19.23;;
38117;SDS011;23928;47.562;7.508;2022-12-10T07:41:16;37.63;;;18.67;;
38117;SDS011;23928;47.562;7.508;2022-12-10T07:43:42;36.87;;;18.77;;
38117;SDS011;23928;47.562;7.508;2022-12-10T07:46:10;40.37;;;19.07;;
38117;SDS011;23928;47.562;7.508;2022-12-10T07:48:47;40.97;;;19.57;;
38117;SDS011;23928;47.562;7.508;2022-12-10T07:51:13;38.53;;;19.33;;
38117;SDS011;23928;47.562;7.508;2022-12-10T07:53:41;38.40;;;18.13;;
38117;SDS011;23928;47.562;7.508;2022-12-10T07:56:07;39.07;;;19.43;;
38117;SDS011;23928;47.562;7.508;2022-12-10T07:58:33;42.77;;;19.80;;
38117;SDS011;23928;47.562;7.508;2022-12-10T08:00:59;42.00;;;18.80;;
38117;SDS011;23928;47.562;7.508;2022-12-10T08:03:30;37.33;;;19.13;;
38117;SDS011;23928;47.562;7.508;2022-12-10T08:06:03;40.93;;;20.63;;
38117;SDS011;23928;47.562;7.508;2022-12-10T08:08:30;40.43;;;19.90;;
38117;SDS011;23928;47.562;7.508;2022-12-10T08:10:58;41.70;;;19.90;;
38117;SDS011;23928;47.562;7.508;2022-12-10T08:13:28;41.43;;;20.67;;
38117;SDS011;23928;47.562;7.508;2022-12-10T08:15:54;50.20;;;20.97;;
38117;SDS011;23928;47.562;7.508;2022-12-10T08:18:30;45.77;;;21.30;;
38117;SDS011;23928;47.562;7.508;2022-12-10T08:20:56;44.47;;;21.70;;
38117;SDS011;23928;47.562;7.508;2022-12-10T08:23:22;47.00;;;21.10;;
38117;SDS011;23928;47.562;7.508;2022-12-10T08:25:48;49.53;;;23.13;;
38117;SDS011;23928;47.562;7.508;2022-12-10T08:28:14;50.60;;;22.37;;
38117;SDS011;23928;47.562;7.508;2022-12-10T08:30:40;49.37;;;22.27;;
38117;SDS011;23928;47.562;7.508;2022-12-10T08:33:10;47.03;;;22.13;;
38117;SDS011;23928;47.562;7.508;2022-12-10T08:35:36;47.93;;;22.63;;
38117;SDS011;23928;47.562;7.508;2022-12-10T08:38:02;48.80;;;21.80;;
38117;SDS011;23928;47.562;7.508;2022-12-10T08:40:27;49.60;;;22.67;;
38117;SDS011;23928;47.562;7.508;2022-12-10T08:42:53;52.87;;;22.33;;
38117;SDS011;23928;47.562;7.508;2022-12-10T08:45:18;48.60;;;22.73;;
38117;SDS011;23928;47.562;7.508;2022-12-10T08:47:44;47.97;;;22.77;;
38117;SDS011;23928;47.562;7.508;2022-12-10T08:50:09;48.97;;;22.27;;
38117;SDS011;23928;47.562;7.508;2022-12-10T08:52:35;50.30;;;22.80;;
38117;SDS011;23928;47.562;7.508;2022-12-10T08:55:01;48.67;;;22.00;;
38117;SDS011;23928;47.562;7.508;2022-12-10T08:57:26;43.70;;;20.40;;
38117;SDS011;23928;47.562;7.508;2022-12-10T08:59:52;47.03;;;22.33;;
38117;SDS011;23928;47.562;7.508;2022-12-10T09:02:17;44.13;;;22.07;;
38117;SDS011;23928;47.562;7.508;2022-12-10T09:04:43;48.23;;;22.10;;
38117;SDS011;23928;47.562;7.508;2022-12-10T09:07:11;43.37;;;21.87;;
38117;SDS011;23928;47.562;7.508;2022-12-10T09:09:37;47.50;;;22.07;;
38117;SDS011;23928;47.562;7.508;2022-12-10T09:12:02;48.07;;;21.67;;
38117;SDS011;23928;47.562;7.508;2022-12-10T09:14:28;47.70;;;23.03;;
38117;SDS011;23928;47.562;7.508;2022-12-10T09:16:54;46.23;;;22.00;;
38117;SDS011;23928;47.562;7.508;2022-12-10T09:19:19;45.53;;;22.10;;
38117;SDS011;23928;47.562;7.508;2022-12-10T09:21:45;51.27;;;22.83;;
38117;SDS011;23928;47.562;7.508;2022-12-10T09:24:12;55.13;;;24.77;;
38117;SDS011;23928;47.562;7.508;2022-12-10T09:26:37;53.43;;;23.60;;
38117;SDS011;23928;47.562;7.508;2022-12-10T09:29:03;46.67;;;21.53;;
38117;SDS011;23928;47.562;7.508;2022-12-10T09:31:28;47.13;;;22.37;;
38117;SDS011;23928;47.562;7.508;2022-12-10T09:33:54;51.07;;;24.50;;
38117;SDS011;23928;47.562;7.508;2022-12-10T09:36:20;45.90;;;22.83;;
38117;SDS011;23928;47.562;7.508;2022-12-10T09:38:46;49.60;;;23.43;;
38117;SDS011;23928;47.562;7.508;2022-12-10T09:41:20;49.97;;;24.00;;
38117;SDS011;23928;47.562;7.508;2022-12-10T09:46:54;48.43;;;22.77;;
38117;SDS011;23928;47.562;7.508;2022-12-10T09:49:33;48.73;;;22.80;;
38117;SDS011;23928;47.562;7.508;2022-12-10T09:52:06;47.00;;;23.27;;
38117;SDS011;23928;47.562;7.508;2022-12-10T09:54:42;53.67;;;23.00;;
38117;SDS011;23928;47.562;7.508;2022-12-10T10:02:40;44.80;;;22.60;;
38117;SDS011;23928;47.562;7.508;2022-12-10T10:07:33;50.90;;;23.73;;
38117;SDS011;23928;47.562;7.508;2022-12-10T10:10:06;49.77;;;24.17;;
38117;SDS011;23928;47.562;7.508;2022-12-10T10:12:41;44.60;;;21.97;;
38117;SDS011;23928;47.562;7.508;2022-12-10T10:15:15;49.93;;;23.53;;
38117;SDS011;23928;47.562;7.508;2022-12-10T10:17:42;48.20;;;24.23;;
38117;SDS011;23928;47.562;7.508;2022-12-10T10:20:14;45.27;;;21.57;;
38117;SDS011;23928;47.562;7.508;2022-12-10T10:22:40;54.47;;;23.10;;
38117;SDS011;23928;47.562;7.508;2022-12-10T10:25:12;43.53;;;21.77;;
38117;SDS011;23928;47.562;7.508;2022-12-10T10:27:40;49.00;;;22.93;;
38117;SDS011;23928;47.562;7.508;2022-12-10T10:30:06;43.33;;;21.80;;
38117;SDS011;23928;47.562;7.508;2022-12-10T10:35:04;48.27;;;22.67;;
38117;SDS011;23928;47.562;7.508;2022-12-10T10:39:59;44.30;;;21.60;;
38117;SDS011;23928;47.562;7.508;2022-12-10T10:45:05;43.27;;;22.20;;
38117;SDS011;23928;47.562;7.508;2022-12-10T10:47:49;42.43;;;21.40;;
38117;SDS011;23928;47.562;7.508;2022-12-10T10:50:44;48.60;;;23.00;;
38117;SDS011;23928;47.562;7.508;2022-12-10T10:53:32;41.37;;;20.40;;
38117;SDS011;23928;47.562;7.508;2022-12-10T10:56:09;42.63;;;21.60;;
38117;SDS011;23928;47.562;7.508;2022-12-10T10:59:02;43.87;;;20.20;;
38117;SDS011;23928;47.562;7.508;2022-12-10T11:01:54;42.73;;;20.93;;
38117;SDS011;23928;47.562;7.508;2022-12-10T11:07:01;39.13;;;20.67;;
38117;SDS011;23928;47.562;7.508;2022-12-10T11:09:29;44.27;;;21.23;;
38117;SDS011;23928;47.562;7.508;2022-12-10T11:12:03;44.83;;;22.07;;
38117;SDS011;23928;47.562;7.508;2022-12-10T11:14:46;47.10;;;22.00;;
38117;SDS011;23928;47.562;7.508;2022-12-10T11:19:56;44.40;;;21.93;;
38117;SDS011;23928;47.562;7.508;2022-12-10T11:22:28;45.17;;;21.53;;
38117;SDS011;23928;47.562;7.508;2022-12-10T11:24:56;41.87;;;20.80;;
38117;SDS011;23928;47.562;7.508;2022-12-10T11:30:09;41.57;;;20.33;;
38117;SDS011;23928;47.562;7.508;2022-12-10T11:35:50;44.90;;;21.40;;
38117;SDS011;23928;47.562;7.508;2022-12-10T11:41:32;43.70;;;21.17;;
38117;SDS011;23928;47.562;7.508;2022-12-10T11:47:00;42.77;;;20.87;;
38117;SDS011;23928;47.562;7.508;2022-12-10T11:52:52;38.33;;;20.47;;
38117;SDS011;23928;47.562;7.508;2022-12-10T11:56:14;41.60;;;20.10;;
38117;SDS011;23928;47.562;7.508;2022-12-10T11:58:16;42.47;;;20.67;;
38117;SDS011;23928;47.562;7.508;2022-12-10T12:00:59;44.10;;;22.23;;
38117;SDS011;23928;47.562;7.508;2022-12-10T12:09:37;37.67;;;19.20;;
38117;SDS011;23928;47.562;7.508;2022-12-10T12:14:59;42.83;;;21.47;;
38117;SDS011;23928;47.562;7.508;2022-12-10T12:19:58;44.03;;;21.23;;
38117;SDS011;23928;47.562;7.508;2022-12-10T12:22:34;38.50;;;20.67;;
38117;SDS011;23928;47.562;7.508;2022-12-10T12:25:08;41.30;;;20.87;;
38117;SDS011;23928;47.562;7.508;2022-12-10T12:27:43;43.97;;;21.30;;
38117;SDS011;23928;47.562;7.508;2022-12-10T12:30:18;41.67;;;20.60;;
38117;SDS011;23928;47.562;7.508;2022-12-10T12:32:54;40.33;;;20.07;;
38117;SDS011;23928;47.562;7.508;2022-12-10T12:38:29;44.10;;;21.20;;
38117;SDS011;23928;47.562;7.508;2022-12-10T12:41:21;40.27;;;19.50;;
38117;SDS011;23928;47.562;7.508;2022-12-10T12:46:39;40.97;;;20.80;;
38117;SDS011;23928;47.562;7.508;2022-12-10T12:49:16;40.23;;;18.97;;
38117;SDS011;23928;47.562;7.508;2022-12-10T12:51:58;39.80;;;19.80;;
38117;SDS011;23928;47.562;7.508;2022-12-10T12:54:32;36.70;;;18.23;;
38117;SDS011;23928;47.562;7.508;2022-12-10T12:59:46;39.57;;;20.23;;
38117;SDS011;23928;47.562;7.508;2022-12-10T13:02:53;39.20;;;19.73;;
38117;SDS011;23928;47.562;7.508;2022-12-10T13:05:42;41.53;;;20.53;;
38117;SDS011;23928;47.562;7.508;2022-12-10T13:13:34;41.83;;;20.37;;
38117;SDS011;23928;47.562;7.508;2022-12-10T13:22:03;37.17;;;18.83;;
38117;SDS011;23928;47.562;7.508;2022-12-10T13:27:04;37.90;;;19.37;;
38117;SDS011;23928;47.562;7.508;2022-12-10T13:34:42;37.23;;;19.67;;
38117;SDS011;23928;47.562;7.508;2022-12-10T13:42:34;35.00;;;18.33;;
38117;SDS011;23928;47.562;7.508;2022-12-10T13:47:48;40.03;;;19.20;;
38117;SDS011;23928;47.562;7.508;2022-12-10T13:55:28;34.07;;;18.13;;
38117;SDS011;23928;47.562;7.508;2022-12-10T14:06:47;36.27;;;19.80;;
38117;SDS011;23928;47.562;7.508;2022-12-10T14:09:19;34.30;;;18.23;;
38117;SDS011;23928;47.562;7.508;2022-12-10T14:11:53;39.07;;;19.97;;
38117;SDS011;23928;47.562;7.508;2022-12-10T14:14:27;36.57;;;20.00;;
38117;SDS011;23928;47.562;7.508;2022-12-10T14:17:02;40.37;;;20.30;;
38117;SDS011;23928;47.562;7.508;2022-12-10T14:19:30;41.07;;;19.80;;
38117;SDS011;23928;47.562;7.508;2022-12-10T14:22:03;40.00;;;19.03;;
38117;SDS011;23928;47.562;7.508;2022-12-10T14:24:37;40.63;;;19.80;;
38117;SDS011;23928;47.562;7.508;2022-12-10T14:27:14;42.23;;;21.03;;
38117;SDS011;23928;47.562;7.508;2022-12-10T14:29:49;44.20;;;20.00;;
38117;SDS011;23928;47.562;7.508;2022-12-10T14:32:20;44.53;;;21.23;;
38117;SDS011;23928;47.562;7.508;2022-12-10T14:34:53;42.37;;;21.00;;
38117;SDS011;23928;47.562;7.508;2022-12-10T14:37:23;39.10;;;20.17;;
38117;SDS011;23928;47.562;7.508;2022-12-10T14:39:52;46.40;;;21.57;;
38117;SDS011;23928;47.562;7.508;2022-12-10T14:42:18;40.17;;;20.43;;
38117;SDS011;23928;47.562;7.508;2022-12-10T14:44:44;43.60;;;21.13;;
38117;SDS011;23928;47.562;7.508;2022-12-10T14:47:15;45.93;;;22.60;;
38117;SDS011;23928;47.562;7.508;2022-12-10T14:49:43;44.07;;;21.10;;
38117;SDS011;23928;47.562;7.508;2022-12-10T14:52:17;42.27;;;20.93;;
38117;SDS011;23928;47.562;7.508;2022-12-10T14:54:45;43.00;;;21.53;;
38117;SDS011;23928;47.562;7.508;2022-12-10T14:57:33;40.50;;;20.63;;
38117;SDS011;23928;47.562;7.508;2022-12-10T15:02:30;42.10;;;20.57;;
38117;SDS011;23928;47.562;7.508;2022-12-10T15:05:03;38.33;;;20.53;;
38117;SDS011;23928;47.562;7.508;2022-12-10T15:07:41;39.07;;;19.17;;
38117;SDS011;23928;47.562;7.508;2022-12-10T15:10:18;42.60;;;21.47;;
38117;SDS011;23928;47.562;7.508;2022-12-10T15:12:48;40.27;;;20.77;;
38117;SDS011;23928;47.562;7.508;2022-12-10T15:15:24;39.97;;;19.83;;
38117;SDS011;23928;47.562;7.508;2022-12-10T15:18:09;45.60;;;21.10;;
38117;SDS011;23928;47.562;7.508;2022-12-10T15:20:43;40.10;;;20.33;;
38117;SDS011;23928;47.562;7.508;2022-12-10T15:23:31;41.40;;;20.83;;
38117;SDS011;23928;47.562;7.508;2022-12-10T15:28:44;38.30;;;20.90;;
38117;SDS011;23928;47.562;7.508;2022-12-10T15:33:44;39.30;;;21.27;;
38117;SDS011;23928;47.562;7.508;2022-12-10T15:38:47;39.67;;;20.63;;
38117;SDS011;23928;47.562;7.508;2022-12-10T15:41:23;38.67;;;19.80;;
38117;SDS011;23928;47.562;7.508;2022-12-10T15:44:00;41.30;;;19.70;;
38117;SDS011;23928;47.562;7.508;2022-12-10T15:46:28;40.17;;;19.87;;
38117;SDS011;23928;47.562;7.508;2022-12-10T15:48:54;37.83;;;19.30;;
38117;SDS011;23928;47.562;7.508;2022-12-10T15:51:19;43.67;;;22.33;;
38117;SDS011;23928;47.562;7.508;2022-12-10T15:53:45;40.00;;;19.83;;
38117;SDS011;23928;47.562;7.508;2022-12-10T15:56:11;44.60;;;20.37;;
38117;SDS011;23928;47.562;7.508;2022-12-10T15:58:36;41.23;;;20.57;;
38117;SDS011;23928;47.562;7.508;2022-12-10T16:01:02;39.63;;;20.30;;
38117;SDS011;23928;47.562;7.508;2022-12-10T16:03:28;41.43;;;20.03;;
38117;SDS011;23928;47.562;7.508;2022-12-10T16:05:54;38.90;;;18.93;;
38117;SDS011;23928;47.562;7.508;2022-12-10T16:08:24;38.10;;;18.67;;
38117;SDS011;23928;47.562;7.508;2022-12-10T16:10:54;41.87;;;20.97;;
38117;SDS011;23928;47.562;7.508;2022-12-10T16:13:25;39.60;;;19.33;;
38117;SDS011;23928;47.562;7.508;2022-12-10T16:16:00;35.43;;;18.00;;
38117;SDS011;23928;47.562;7.508;2022-12-10T16:18:28;37.10;;;18.40;;
38117;SDS011;23928;47.562;7.508;2022-12-10T16:20:54;35.53;;;18.93;;
38117;SDS011;23928;47.562;7.508;2022-12-10T16:23:20;38.27;;;19.17;;
38117;SDS011;23928;47.562;7.508;2022-12-10T16:25:46;41.27;;;19.60;;
38117;SDS011;23928;47.562;7.508;2022-12-10T16:28:13;38.77;;;19.20;;
38117;SDS011;23928;47.562;7.508;2022-12-10T16:30:47;39.07;;;18.70;;
38117;SDS011;23928;47.562;7.508;2022-12-10T16:33:17;39.10;;;19.50;;
38117;SDS011;23928;47.562;7.508;2022-12-10T16:35:44;40.83;;;20.10;;
38117;SDS011;23928;47.562;7.508;2022-12-10T16:38:10;44.27;;;21.13;;
38117;SDS011;23928;47.562;7.508;2022-12-10T16:40:37;40.63;;;20.00;;
38117;SDS011;23928;47.562;7.508;2022-12-10T16:43:04;41.33;;;19.83;;